sensor_id;sensor_type;location;lat;lon;timestamp;pressure;altitude;pressure_sealevel;temperature;humidity
69848;BME280;57143;55.940;37.496;2022-08-19T00:01:45;99983.78;;;19.94;100.00
69848;BME280;57143;55.940;37.496;2022-08-19T00:04:15;99987.09;;;19.96;100.00
69848;BME280;57143;55.940;37.496;2022-08-19T00:06:44;99992.31;;;19.97;100.00
69848;BME280;57143;55.940;37.496;2022-08-19T00:09:14;99997.56;;;19.99;100.00
69848;BME280;57143;55.940;37.496;2022-08-19T00:11:42;99989.00;;;19.95;100.00
69848;BME280;57143;55.940;37.496;2022-08-19T00:14:12;100001.69;;;19.96;100.00
69848;BME280;57143;55.940;37.496;2022-08-19T00:16:40;99999.75;;;19.97;100.00
69848;BME280;57143;55.940;37.496;2022-08-19T00:19:08;99974.41;;;19.85;100.00
69848;BME280;57143;55.940;37.496;2022-08-19T00:21:35;99990.13;;;19.94;100.00
69848;BME280;57143;55.940;37.496;2022-08-19T00:24:05;99988.44;;;19.93;100.00
69848;BME280;57143;55.940;37.496;2022-08-19T00:26:33;99989.56;;;19.92;100.00
69848;BME280;57143;55.940;37.496;2022-08-19T00:29:01;100004.16;;;19.93;100.00
69848;BME280;57143;55.940;37.496;2022-08-19T00:31:30;100006.34;;;19.91;100.00
69848;BME280;57143;55.940;37.496;2022-08-19T00:33:57;99996.41;;;19.85;100.00
69848;BME280;57143;55.940;37.496;2022-08-19T00:36:24;99986.47;;;19.69;100.00
69848;BME280;57143;55.940;37.496;2022-08-19T00:38:51;100004.38;;;19.76;100.00
69848;BME280;57143;55.940;37.496;2022-08-19T00:41:20;99998.00;;;19.66;100.00
69848;BME280;57143;55.940;37.496;2022-08-19T00:43:58;100007.66;;;19.68;100.00
69848;BME280;57143;55.940;37.496;2022-08-19T00:46:26;100001.00;;;19.64;100.00
69848;BME280;57143;55.940;37.496;2022-08-19T00:48:55;100006.50;;;19.59;100.00
69848;BME280;57143;55.940;37.496;2022-08-19T00:51:24;100022.72;;;19.61;100.00
69848;BME280;57143;55.940;37.496;2022-08-19T00:53:53;100015.59;;;19.60;100.00
69848;BME280;57143;55.940;37.496;2022-08-19T00:56:20;100019.44;;;19.59;100.00
69848;BME280;57143;55.940;37.496;2022-08-19T00:58:47;100020.25;;;19.59;100.00
69848;BME280;57143;55.940;37.496;2022-08-19T01:01:15;100018.59;;;19.53;100.00
69848;BME280;57143;55.940;37.496;2022-08-19T01:03:41;100024.88;;;19.53;100.00
69848;BME280;57143;55.940;37.496;2022-08-19T01:06:10;100025.16;;;19.52;100.00
69848;BME280;57143;55.940;37.496;2022-08-19T01:08:37;100018.53;;;19.43;100.00
69848;BME280;57143;55.940;37.496;2022-08-19T01:11:04;100019.91;;;19.45;100.00
69848;BME280;57143;55.940;37.496;2022-08-19T01:13:33;100001.66;;;19.29;100.00
69848;BME280;57143;55.940;37.496;2022-08-19T01:16:02;99950.34;;;18.93;100.00
69848;BME280;57143;55.940;37.496;2022-08-19T01:18:30;100027.75;;;19.27;100.00
69848;BME280;57143;55.940;37.496;2022-08-19T01:21:01;100014.53;;;19.19;100.00
69848;BME280;57143;55.940;37.496;2022-08-19T01:23:30;100020.84;;;19.19;100.00
69848;BME280;57143;55.940;37.496;2022-08-19T01:26:10;100032.66;;;19.20;100.00
69848;BME280;57143;55.940;37.496;2022-08-19T01:28:37;100033.53;;;19.25;100.00
69848;BME280;57143;55.940;37.496;2022-08-19T01:31:05;100038.72;;;19.22;100.00
69848;BME280;57143;55.940;37.496;2022-08-19T01:33:33;100033.16;;;19.12;100.00
69848;BME280;57143;55.940;37.496;2022-08-19T01:36:08;100043.34;;;19.16;100.00
69848;BME280;57143;55.940;37.496;2022-08-19T01:38:39;100037.06;;;19.21;100.00
69848;BME280;57143;55.940;37.496;2022-08-19T01:41:07;100037.59;;;19.18;100.00
69848;BME280;57143;55.940;37.496;2022-08-19T01:43:34;100037.84;;;19.16;100.00
69848;BME280;57143;55.940;37.496;2022-08-19T01:46:02;100038.41;;;19.13;100.00
69848;BME280;57143;55.940;37.496;2022-08-19T01:48:33;100035.63;;;19.08;100.00
69848;BME280;57143;55.940;37.496;2022-08-19T01:51:01;100024.22;;;18.95;100.00
69848;BME280;57143;55.940;37.496;2022-08-19T01:53:28;100031.69;;;18.99;100.00
69848;BME280;57143;55.940;37.496;2022-08-19T01:55:57;100042.72;;;19.04;100.00
69848;BME280;57143;55.940;37.496;2022-08-19T01:58:27;100036.63;;;18.97;100.00
69848;BME280;57143;55.940;37.496;2022-08-19T02:00:57;100040.97;;;18.93;100.00
69848;BME280;57143;55.940;37.496;2022-08-19T02:03:24;100046.22;;;18.95;100.00
69848;BME280;57143;55.940;37.496;2022-08-19T02:05:55;100046.44;;;18.88;100.00
69848;BME280;57143;55.940;37.496;2022-08-19T02:08:23;100048.63;;;18.86;100.00
69848;BME280;57143;55.940;37.496;2022-08-19T02:10:50;100040.59;;;18.80;100.00
69848;BME280;57143;55.940;37.496;2022-08-19T02:13:19;100024.63;;;18.72;100.00
69848;BME280;57143;55.940;37.496;2022-08-19T02:15:46;100046.91;;;18.75;100.00
69848;BME280;57143;55.940;37.496;2022-08-19T02:18:13;100053.97;;;18.66;100.00
69848;BME280;57143;55.940;37.496;2022-08-19T02:20:41;100040.16;;;18.56;100.00
69848;BME280;57143;55.940;37.496;2022-08-19T02:23:09;100057.50;;;18.62;100.00
69848;BME280;57143;55.940;37.496;2022-08-19T02:25:38;100058.22;;;18.52;100.00
69848;BME280;57143;55.940;37.496;2022-08-19T02:28:05;100062.38;;;18.55;100.00
69848;BME280;57143;55.940;37.496;2022-08-19T02:30:34;100047.19;;;18.47;100.00
69848;BME280;57143;55.940;37.496;2022-08-19T02:33:01;100048.28;;;18.46;100.00
69848;BME280;57143;55.940;37.496;2022-08-19T02:35:28;100068.88;;;18.49;100.00
69848;BME280;57143;55.940;37.496;2022-08-19T02:37:54;100061.31;;;18.34;100.00
69848;BME280;57143;55.940;37.496;2022-08-19T02:40:39;100068.75;;;18.38;100.00
69848;BME280;57143;55.940;37.496;2022-08-19T02:43:07;100066.53;;;18.35;100.00
69848;BME280;57143;55.940;37.496;2022-08-19T02:45:38;100084.25;;;18.45;100.00
69848;BME280;57143;55.940;37.496;2022-08-19T02:48:05;100079.25;;;18.41;100.00
69848;BME280;57143;55.940;37.496;2022-08-19T02:50:33;100085.63;;;18.47;100.00
69848;BME280;57143;55.940;37.496;2022-08-19T02:53:00;100078.28;;;18.53;100.00
69848;BME280;57143;55.940;37.496;2022-08-19T02:55:27;100084.88;;;18.52;100.00
69848;BME280;57143;55.940;37.496;2022-08-19T02:57:54;100081.28;;;18.51;100.00
69848;BME280;57143;55.940;37.496;2022-08-19T03:00:22;100074.69;;;18.52;100.00
69848;BME280;57143;55.940;37.496;2022-08-19T03:02:50;100077.44;;;18.52;100.00
69848;BME280;57143;55.940;37.496;2022-08-19T03:05:17;100069.69;;;18.44;100.00
69848;BME280;57143;55.940;37.496;2022-08-19T03:07:44;100073.03;;;18.51;100.00
69848;BME280;57143;55.940;37.496;2022-08-19T03:10:12;100071.06;;;18.47;100.00
69848;BME280;57143;55.940;37.496;2022-08-19T03:12:39;100080.19;;;18.52;100.00
69848;BME280;57143;55.940;37.496;2022-08-19T03:15:08;100077.34;;;18.42;100.00
69848;BME280;57143;55.940;37.496;2022-08-19T03:17:36;100083.19;;;18.51;100.00
69848;BME280;57143;55.940;37.496;2022-08-19T03:20:05;100069.72;;;18.49;100.00
69848;BME280;57143;55.940;37.496;2022-08-19T03:22:32;100071.59;;;18.43;100.00
69848;BME280;57143;55.940;37.496;2022-08-19T03:24:59;100085.94;;;18.51;100.00
69848;BME280;57143;55.940;37.496;2022-08-19T03:27:26;100080.75;;;18.54;100.00
69848;BME280;57143;55.940;37.496;2022-08-19T03:29:54;100099.59;;;18.72;100.00
69848;BME280;57143;55.940;37.496;2022-08-19T03:32:21;100081.47;;;18.71;100.00
69848;BME280;57143;55.940;37.496;2022-08-19T03:34:48;100087.03;;;18.81;100.00
69848;BME280;57143;55.940;37.496;2022-08-19T03:37:17;100086.72;;;18.78;100.00
69848;BME280;57143;55.940;37.496;2022-08-19T03:39:44;100080.72;;;18.81;100.00
69848;BME280;57143;55.940;37.496;2022-08-19T03:42:11;100086.84;;;18.88;100.00
69848;BME280;57143;55.940;37.496;2022-08-19T03:44:38;100086.03;;;18.92;100.00
69848;BME280;57143;55.940;37.496;2022-08-19T03:47:07;100071.69;;;18.85;100.00
69848;BME280;57143;55.940;37.496;2022-08-19T03:49:34;100076.66;;;18.88;100.00
69848;BME280;57143;55.940;37.496;2022-08-19T03:52:02;100086.09;;;18.97;100.00
69848;BME280;57143;55.940;37.496;2022-08-19T03:54:34;100087.25;;;19.06;100.00
69848;BME280;57143;55.940;37.496;2022-08-19T03:57:01;100085.69;;;19.15;100.00
69848;BME280;57143;55.940;37.496;2022-08-19T03:59:31;100080.50;;;19.19;100.00
69848;BME280;57143;55.940;37.496;2022-08-19T04:02:00;100044.41;;;19.10;100.00
69848;BME280;57143;55.940;37.496;2022-08-19T04:04:28;100077.81;;;19.29;100.00
69848;BME280;57143;55.940;37.496;2022-08-19T04:06:55;100080.75;;;19.22;100.00
69848;BME280;57143;55.940;37.496;2022-08-19T04:09:23;100078.56;;;19.24;100.00
69848;BME280;57143;55.940;37.496;2022-08-19T04:11:53;100089.69;;;19.34;100.00
69848;BME280;57143;55.940;37.496;2022-08-19T04:14:24;100089.59;;;19.29;100.00
69848;BME280;57143;55.940;37.496;2022-08-19T04:16:52;100085.22;;;19.28;100.00
69848;BME280;57143;55.940;37.496;2022-08-19T04:19:20;100083.38;;;19.34;100.00
69848;BME280;57143;55.940;37.496;2022-08-19T04:21:49;100086.13;;;19.34;100.00
69848;BME280;57143;55.940;37.496;2022-08-19T04:24:16;100092.47;;;19.39;100.00
69848;BME280;57143;55.940;37.496;2022-08-19T04:26:44;100081.69;;;19.33;100.00
69848;BME280;57143;55.940;37.496;2022-08-19T04:29:15;100072.38;;;19.34;100.00
69848;BME280;57143;55.940;37.496;2022-08-19T04:31:44;100087.06;;;19.54;100.00
69848;BME280;57143;55.940;37.496;2022-08-19T04:34:13;100090.69;;;19.65;100.00
69848;BME280;57143;55.940;37.496;2022-08-19T04:36:43;100087.13;;;19.70;100.00
69848;BME280;57143;55.940;37.496;2022-08-19T04:39:12;100078.31;;;19.68;100.00
69848;BME280;57143;55.940;37.496;2022-08-19T04:41:39;100101.78;;;19.80;100.00
69848;BME280;57143;55.940;37.496;2022-08-19T04:44:25;100093.56;;;19.90;100.00
69848;BME280;57143;55.940;37.496;2022-08-19T04:46:52;100103.84;;;20.15;100.00
69848;BME280;57143;55.940;37.496;2022-08-19T04:49:21;100097.03;;;20.22;100.00
69848;BME280;57143;55.940;37.496;2022-08-19T04:51:50;100088.81;;;20.42;100.00
69848;BME280;57143;55.940;37.496;2022-08-19T04:54:20;100088.03;;;20.67;100.00
69848;BME280;57143;55.940;37.496;2022-08-19T04:56:48;100087.47;;;20.50;100.00
69848;BME280;57143;55.940;37.496;2022-08-19T04:59:16;100097.38;;;20.76;100.00
69848;BME280;57143;55.940;37.496;2022-08-19T05:01:46;100090.78;;;20.77;100.00
69848;BME280;57143;55.940;37.496;2022-08-19T05:04:16;100098.50;;;20.95;100.00
69848;BME280;57143;55.940;37.496;2022-08-19T05:06:44;100096.03;;;21.04;100.00
69848;BME280;57143;55.940;37.496;2022-08-19T05:09:12;100097.97;;;21.33;100.00
69848;BME280;57143;55.940;37.496;2022-08-19T05:11:39;100103.47;;;21.53;100.00
69848;BME280;57143;55.940;37.496;2022-08-19T05:14:06;100098.47;;;21.60;99.89
69848;BME280;57143;55.940;37.496;2022-08-19T05:16:34;100095.41;;;21.67;99.37
69848;BME280;57143;55.940;37.496;2022-08-19T05:19:02;100099.53;;;21.79;98.04
69848;BME280;57143;55.940;37.496;2022-08-19T05:21:47;100096.22;;;21.88;96.92
69848;BME280;57143;55.940;37.496;2022-08-19T05:24:31;100097.75;;;22.14;95.85
69848;BME280;57143;55.940;37.496;2022-08-19T05:26:59;100093.78;;;22.30;94.82
69848;BME280;57143;55.940;37.496;2022-08-19T05:29:29;100098.16;;;22.41;94.46
69848;BME280;57143;55.940;37.496;2022-08-19T05:31:58;100097.38;;;22.30;94.72
69848;BME280;57143;55.940;37.496;2022-08-19T05:34:27;100082.63;;;22.55;92.56
69848;BME280;57143;55.940;37.496;2022-08-19T05:36:56;100096.16;;;22.56;92.56
69848;BME280;57143;55.940;37.496;2022-08-19T05:39:27;100092.75;;;22.69;91.63
69848;BME280;57143;55.940;37.496;2022-08-19T05:41:56;100089.56;;;23.20;88.89
69848;BME280;57143;55.940;37.496;2022-08-19T05:44:24;100093.34;;;23.34;87.75
69848;BME280;57143;55.940;37.496;2022-08-19T05:46:52;100080.13;;;23.26;87.54
69848;BME280;57143;55.940;37.496;2022-08-19T05:49:22;100094.09;;;23.11;89.17
69848;BME280;57143;55.940;37.496;2022-08-19T05:51:51;100093.97;;;23.54;86.87
69848;BME280;57143;55.940;37.496;2022-08-19T05:54:18;100096.78;;;24.02;85.20
69848;BME280;57143;55.940;37.496;2022-08-19T05:56:46;100096.06;;;23.67;85.63
69848;BME280;57143;55.940;37.496;2022-08-19T05:59:15;100098.34;;;23.32;88.40
69848;BME280;57143;55.940;37.496;2022-08-19T06:01:44;100094.59;;;23.13;89.62
69848;BME280;57143;55.940;37.496;2022-08-19T06:04:11;100097.16;;;23.04;89.85
69848;BME280;57143;55.940;37.496;2022-08-19T06:06:40;100094.72;;;23.36;88.64
69848;BME280;57143;55.940;37.496;2022-08-19T06:09:08;100094.56;;;23.75;87.60
69848;BME280;57143;55.940;37.496;2022-08-19T06:11:37;100098.56;;;23.64;87.78
69848;BME280;57143;55.940;37.496;2022-08-19T06:14:07;100086.59;;;23.45;88.34
69848;BME280;57143;55.940;37.496;2022-08-19T06:16:35;100098.41;;;23.22;90.58
69848;BME280;57143;55.940;37.496;2022-08-19T06:19:04;100108.19;;;22.75;93.56
69848;BME280;57143;55.940;37.496;2022-08-19T06:21:33;100107.97;;;22.67;94.68
69848;BME280;57143;55.940;37.496;2022-08-19T06:24:03;100067.41;;;22.52;94.15
69848;BME280;57143;55.940;37.496;2022-08-19T06:26:33;100101.81;;;22.75;94.13
69848;BME280;57143;55.940;37.496;2022-08-19T06:29:02;100114.38;;;22.96;92.71
69848;BME280;57143;55.940;37.496;2022-08-19T06:31:32;100125.88;;;22.74;93.97
69848;BME280;57143;55.940;37.496;2022-08-19T06:34:00;100124.81;;;22.70;95.93
69848;BME280;57143;55.940;37.496;2022-08-19T06:36:31;100111.50;;;22.77;94.81
69848;BME280;57143;55.940;37.496;2022-08-19T06:39:00;100123.09;;;22.79;95.76
69848;BME280;57143;55.940;37.496;2022-08-19T06:41:27;100117.69;;;22.59;97.35
69848;BME280;57143;55.940;37.496;2022-08-19T06:43:56;100112.19;;;22.54;98.11
69848;BME280;57143;55.940;37.496;2022-08-19T06:46:23;100121.72;;;22.77;96.44
69848;BME280;57143;55.940;37.496;2022-08-19T06:48:52;100110.00;;;22.90;96.17
69848;BME280;57143;55.940;37.496;2022-08-19T06:51:20;100113.72;;;22.75;95.67
69848;BME280;57143;55.940;37.496;2022-08-19T06:53:50;100105.09;;;22.82;97.86
69848;BME280;57143;55.940;37.496;2022-08-19T06:56:20;100084.91;;;22.81;97.94
69848;BME280;57143;55.940;37.496;2022-08-19T06:58:48;100117.00;;;23.50;95.93
69848;BME280;57143;55.940;37.496;2022-08-19T07:01:19;100107.69;;;23.07;96.30
69848;BME280;57143;55.940;37.496;2022-08-19T07:03:46;100112.41;;;23.35;96.04
69848;BME280;57143;55.940;37.496;2022-08-19T07:06:16;100112.19;;;23.60;95.20
69848;BME280;57143;55.940;37.496;2022-08-19T07:08:46;100105.88;;;23.55;94.87
69848;BME280;57143;55.940;37.496;2022-08-19T07:11:16;100112.34;;;23.69;94.31
69848;BME280;57143;55.940;37.496;2022-08-19T07:13:44;100103.88;;;23.84;94.48
69848;BME280;57143;55.940;37.496;2022-08-19T07:16:14;100090.03;;;23.84;93.86
69848;BME280;57143;55.940;37.496;2022-08-19T07:18:43;100090.34;;;23.59;93.75
69848;BME280;57143;55.940;37.496;2022-08-19T07:21:13;100088.69;;;23.81;93.05
69848;BME280;57143;55.940;37.496;2022-08-19T07:23:41;100101.28;;;23.69;93.91
69848;BME280;57143;55.940;37.496;2022-08-19T07:26:10;100087.97;;;23.94;93.87
69848;BME280;57143;55.940;37.496;2022-08-19T07:28:37;100098.69;;;23.77;94.01
69848;BME280;57143;55.940;37.496;2022-08-19T07:31:05;100104.84;;;23.69;94.80
69848;BME280;57143;55.940;37.496;2022-08-19T07:33:33;100107.59;;;23.74;94.77
69848;BME280;57143;55.940;37.496;2022-08-19T07:36:04;100105.47;;;24.14;93.06
69848;BME280;57143;55.940;37.496;2022-08-19T07:38:32;100095.25;;;24.33;90.25
69848;BME280;57143;55.940;37.496;2022-08-19T07:41:00;100085.00;;;24.52;85.39
69848;BME280;57143;55.940;37.496;2022-08-19T07:43:27;100094.72;;;24.73;79.68
69848;BME280;57143;55.940;37.496;2022-08-19T07:45:55;100093.84;;;24.54;78.52
69848;BME280;57143;55.940;37.496;2022-08-19T07:48:22;100096.31;;;24.55;76.39
69848;BME280;57143;55.940;37.496;2022-08-19T07:50:51;100106.19;;;24.43;75.56
69848;BME280;57143;55.940;37.496;2022-08-19T07:53:20;100090.72;;;24.42;75.34
69848;BME280;57143;55.940;37.496;2022-08-19T07:55:47;100091.34;;;24.52;74.69
69848;BME280;57143;55.940;37.496;2022-08-19T07:58:17;100104.47;;;24.65;72.08
69848;BME280;57143;55.940;37.496;2022-08-19T08:00:45;100110.50;;;24.54;72.65
69848;BME280;57143;55.940;37.496;2022-08-19T08:03:14;100106.81;;;24.40;73.61
69848;BME280;57143;55.940;37.496;2022-08-19T08:05:42;100110.72;;;24.57;73.71
69848;BME280;57143;55.940;37.496;2022-08-19T08:08:30;100114.38;;;24.53;73.94
69848;BME280;57143;55.940;37.496;2022-08-19T08:11:15;100127.81;;;24.83;72.02
69848;BME280;57143;55.940;37.496;2022-08-19T08:13:42;100121.41;;;24.64;72.22
69848;BME280;57143;55.940;37.496;2022-08-19T08:16:10;100110.34;;;24.64;71.37
69848;BME280;57143;55.940;37.496;2022-08-19T08:18:36;100139.66;;;24.70;69.68
69848;BME280;57143;55.940;37.496;2022-08-19T08:21:07;100121.66;;;24.67;69.68
69848;BME280;57143;55.940;37.496;2022-08-19T08:23:36;100112.88;;;24.97;68.94
69848;BME280;57143;55.940;37.496;2022-08-19T08:26:03;100129.44;;;25.21;66.80
69848;BME280;57143;55.940;37.496;2022-08-19T08:28:30;100120.28;;;25.66;63.72
69848;BME280;57143;55.940;37.496;2022-08-19T08:30:58;100129.06;;;25.87;63.95
69848;BME280;57143;55.940;37.496;2022-08-19T08:33:27;100125.47;;;25.86;64.06
69848;BME280;57143;55.940;37.496;2022-08-19T08:35:54;100112.34;;;25.46;63.96
69848;BME280;57143;55.940;37.496;2022-08-19T08:38:21;100099.91;;;25.25;65.44
69848;BME280;57143;55.940;37.496;2022-08-19T08:40:52;100131.41;;;25.66;64.40
69848;BME280;57143;55.940;37.496;2022-08-19T08:43:25;100137.53;;;25.95;62.15
69848;BME280;57143;55.940;37.496;2022-08-19T08:45:59;100128.25;;;25.73;60.44
69848;BME280;57143;55.940;37.496;2022-08-19T08:48:40;100140.00;;;25.51;63.50
69848;BME280;57143;55.940;37.496;2022-08-19T08:51:15;100117.72;;;25.70;63.47
69848;BME280;57143;55.940;37.496;2022-08-19T08:53:45;100123.38;;;25.78;60.50
69848;BME280;57143;55.940;37.496;2022-08-19T08:56:16;100105.50;;;25.71;60.52
69848;BME280;57143;55.940;37.496;2022-08-19T08:58:51;100128.56;;;25.71;61.25
69848;BME280;57143;55.940;37.496;2022-08-19T09:01:21;100126.13;;;25.51;61.19
69848;BME280;57143;55.940;37.496;2022-08-19T09:03:48;100129.41;;;25.40;62.20
69848;BME280;57143;55.940;37.496;2022-08-19T09:06:26;100129.97;;;25.04;60.88
69848;BME280;57143;55.940;37.496;2022-08-19T09:09:01;100134.69;;;25.04;63.49
69848;BME280;57143;55.940;37.496;2022-08-19T09:11:40;100154.78;;;24.96;62.46
69848;BME280;57143;55.940;37.496;2022-08-19T09:14:23;100143.09;;;24.80;64.17
69848;BME280;57143;55.940;37.496;2022-08-19T09:16:57;100145.94;;;24.75;64.44
69848;BME280;57143;55.940;37.496;2022-08-19T09:19:24;100111.13;;;24.64;65.47
69848;BME280;57143;55.940;37.496;2022-08-19T09:21:51;100150.75;;;24.70;65.56
69848;BME280;57143;55.940;37.496;2022-08-19T09:24:18;100136.00;;;24.74;63.46
69848;BME280;57143;55.940;37.496;2022-08-19T09:26:47;100137.31;;;24.95;63.55
69848;BME280;57143;55.940;37.496;2022-08-19T09:29:14;100134.53;;;24.95;65.26
69848;BME280;57143;55.940;37.496;2022-08-19T09:31:41;100147.06;;;25.11;66.37
69848;BME280;57143;55.940;37.496;2022-08-19T09:34:08;100148.53;;;25.23;67.26
69848;BME280;57143;55.940;37.496;2022-08-19T09:36:35;100128.38;;;25.17;67.76
69848;BME280;57143;55.940;37.496;2022-08-19T09:39:05;100139.97;;;25.38;68.27
69848;BME280;57143;55.940;37.496;2022-08-19T09:41:32;100137.84;;;25.48;67.80
69848;BME280;57143;55.940;37.496;2022-08-19T09:44:01;100134.91;;;25.72;66.69
69848;BME280;57143;55.940;37.496;2022-08-19T09:46:29;100141.09;;;25.82;66.21
69848;BME280;57143;55.940;37.496;2022-08-19T09:48:58;100122.25;;;25.52;67.40
69848;BME280;57143;55.940;37.496;2022-08-19T09:51:27;100139.69;;;25.53;67.84
69848;BME280;57143;55.940;37.496;2022-08-19T09:53:59;100133.69;;;25.64;67.42
69848;BME280;57143;55.940;37.496;2022-08-19T09:56:27;100137.25;;;25.65;66.92
69848;BME280;57143;55.940;37.496;2022-08-19T09:58:54;100107.94;;;25.27;68.47
69848;BME280;57143;55.940;37.496;2022-08-19T10:01:25;100106.06;;;25.41;66.99
69848;BME280;57143;55.940;37.496;2022-08-19T10:03:54;100127.63;;;25.76;65.63
69848;BME280;57143;55.940;37.496;2022-08-19T10:06:23;100167.22;;;25.68;63.61
69848;BME280;57143;55.940;37.496;2022-08-19T10:08:51;100136.41;;;25.51;63.16
69848;BME280;57143;55.940;37.496;2022-08-19T10:11:19;100147.56;;;25.64;62.31
69848;BME280;57143;55.940;37.496;2022-08-19T10:13:48;100141.75;;;25.47;61.43
69848;BME280;57143;55.940;37.496;2022-08-19T10:16:18;100117.28;;;25.49;61.04
69848;BME280;57143;55.940;37.496;2022-08-19T10:18:48;100138.00;;;25.97;56.26
69848;BME280;57143;55.940;37.496;2022-08-19T10:21:18;100158.78;;;25.73;54.63
69848;BME280;57143;55.940;37.496;2022-08-19T10:23:47;100142.59;;;26.07;53.67
69848;BME280;57143;55.940;37.496;2022-08-19T10:26:18;100138.72;;;25.76;50.55
69848;BME280;57143;55.940;37.496;2022-08-19T10:28:46;100131.25;;;25.90;50.11
69848;BME280;57143;55.940;37.496;2022-08-19T10:31:16;100122.28;;;25.93;47.72
69848;BME280;57143;55.940;37.496;2022-08-19T10:33:45;100140.94;;;26.06;47.08
69848;BME280;57143;55.940;37.496;2022-08-19T10:36:16;100137.59;;;25.90;46.71
69848;BME280;57143;55.940;37.496;2022-08-19T10:38:46;100128.34;;;25.68;45.46
69848;BME280;57143;55.940;37.496;2022-08-19T10:41:17;100139.56;;;25.76;43.99
69848;BME280;57143;55.940;37.496;2022-08-19T10:43:45;100150.69;;;25.90;43.58
69848;BME280;57143;55.940;37.496;2022-08-19T10:46:14;100149.81;;;25.62;41.23
69848;BME280;57143;55.940;37.496;2022-08-19T10:48:42;100150.38;;;25.78;40.65
69848;BME280;57143;55.940;37.496;2022-08-19T10:51:10;100140.34;;;26.09;40.55
69848;BME280;57143;55.940;37.496;2022-08-19T10:53:57;100157.66;;;25.87;40.89
69848;BME280;57143;55.940;37.496;2022-08-19T10:56:24;100165.88;;;25.79;42.47
69848;BME280;57143;55.940;37.496;2022-08-19T10:59:09;100147.25;;;25.66;43.42
69848;BME280;57143;55.940;37.496;2022-08-19T11:01:38;100152.63;;;25.76;42.95
69848;BME280;57143;55.940;37.496;2022-08-19T11:04:05;100164.78;;;25.80;42.43
69848;BME280;57143;55.940;37.496;2022-08-19T11:06:34;100165.88;;;25.79;41.74
69848;BME280;57143;55.940;37.496;2022-08-19T11:09:03;100146.22;;;25.75;40.03
69848;BME280;57143;55.940;37.496;2022-08-19T11:11:31;100163.81;;;25.71;38.32
69848;BME280;57143;55.940;37.496;2022-08-19T11:13:58;100144.50;;;25.79;38.12
69848;BME280;57143;55.940;37.496;2022-08-19T11:16:26;100169.94;;;25.54;37.52
69848;BME280;57143;55.940;37.496;2022-08-19T11:18:58;100175.56;;;25.68;38.00
69848;BME280;57143;55.940;37.496;2022-08-19T11:21:27;100167.59;;;25.61;38.02
69848;BME280;57143;55.940;37.496;2022-08-19T11:23:57;100154.16;;;25.36;38.27
69848;BME280;57143;55.940;37.496;2022-08-19T11:26:27;100151.22;;;25.46;37.93
69848;BME280;57143;55.940;37.496;2022-08-19T11:28:55;100157.06;;;25.45;37.31
69848;BME280;57143;55.940;37.496;2022-08-19T11:31:24;100156.84;;;25.41;36.56
69848;BME280;57143;55.940;37.496;2022-08-19T11:33:52;100159.47;;;25.33;36.26
69848;BME280;57143;55.940;37.496;2022-08-19T11:36:19;100138.03;;;25.38;35.54
69848;BME280;57143;55.940;37.496;2022-08-19T11:38:47;100148.97;;;25.48;35.09
69848;BME280;57143;55.940;37.496;2022-08-19T11:41:16;100135.59;;;25.50;34.13
69848;BME280;57143;55.940;37.496;2022-08-19T11:43:45;100144.56;;;25.61;34.10
69848;BME280;57143;55.940;37.496;2022-08-19T11:46:13;100139.50;;;25.63;32.15
69848;BME280;57143;55.940;37.496;2022-08-19T11:48:41;100149.41;;;25.69;33.63
69848;BME280;57143;55.940;37.496;2022-08-19T11:51:10;100146.97;;;25.81;30.12
69848;BME280;57143;55.940;37.496;2022-08-19T11:53:38;100132.09;;;26.04;28.76
69848;BME280;57143;55.940;37.496;2022-08-19T11:56:06;100145.25;;;26.26;28.16
69848;BME280;57143;55.940;37.496;2022-08-19T11:58:35;100168.34;;;26.12;26.07
69848;BME280;57143;55.940;37.496;2022-08-19T12:01:06;100137.25;;;26.10;26.19
69848;BME280;57143;55.940;37.496;2022-08-19T12:03:34;100188.28;;;26.14;26.78
69848;BME280;57143;55.940;37.496;2022-08-19T12:06:04;100161.53;;;26.05;27.06
69848;BME280;57143;55.940;37.496;2022-08-19T12:08:31;100144.28;;;25.76;28.83
69848;BME280;57143;55.940;37.496;2022-08-19T12:10:58;100116.72;;;25.79;28.85
69848;BME280;57143;55.940;37.496;2022-08-19T12:13:27;100146.88;;;25.86;29.83
69848;BME280;57143;55.940;37.496;2022-08-19T12:15:54;100120.41;;;25.75;30.71
69848;BME280;57143;55.940;37.496;2022-08-19T12:18:23;100168.84;;;25.69;30.82
69848;BME280;57143;55.940;37.496;2022-08-19T12:20:51;100130.31;;;25.81;31.00
69848;BME280;57143;55.940;37.496;2022-08-19T12:23:20;100153.16;;;25.91;31.41
69848;BME280;57143;55.940;37.496;2022-08-19T12:25:50;100150.78;;;25.85;31.67
69848;BME280;57143;55.940;37.496;2022-08-19T12:28:18;100142.56;;;25.93;32.12
69848;BME280;57143;55.940;37.496;2022-08-19T12:30:46;100139.16;;;25.96;32.29
69848;BME280;57143;55.940;37.496;2022-08-19T12:33:13;100143.25;;;25.99;32.88
69848;BME280;57143;55.940;37.496;2022-08-19T12:35:45;100139.69;;;25.98;33.76
69848;BME280;57143;55.940;37.496;2022-08-19T12:38:13;100126.38;;;25.68;36.20
69848;BME280;57143;55.940;37.496;2022-08-19T12:40:40;100136.06;;;25.84;36.82
69848;BME280;57143;55.940;37.496;2022-08-19T12:43:07;100132.09;;;26.04;36.71
69848;BME280;57143;55.940;37.496;2022-08-19T12:45:37;100123.75;;;26.17;36.72